sensor_id;sensor_type;location;lat;lon;timestamp;temperature;humidity
13072;DHT22;6602;58.934;11.166;2023-05-29T00:00:21;9.60;99.90
13072;DHT22;6602;58.934;11.166;2023-05-29T00:05:23;9.50;99.90
13072;DHT22;6602;58.934;11.166;2023-05-29T00:10:25;9.50;99.90
13072;DHT22;6602;58.934;11.166;2023-05-29T00:15:26;9.40;99.90
13072;DHT22;6602;58.934;11.166;2023-05-29T00:20:27;9.30;99.90
13072;DHT22;6602;58.934;11.166;2023-05-29T00:25:32;9.30;99.90
13072;DHT22;6602;58.934;11.166;2023-05-29T00:30:35;9.20;99.90
13072;DHT22;6602;58.934;11.166;2023-05-29T00:35:39;9.20;99.90
13072;DHT22;6602;58.934;11.166;2023-05-29T00:40:43;9.00;99.90
13072;DHT22;6602;58.934;11.166;2023-05-29T00:45:43;9.00;99.90
13072;DHT22;6602;58.934;11.166;2023-05-29T00:50:47;9.10;99.90
13072;DHT22;6602;58.934;11.166;2023-05-29T00:55:48;9.10;99.90
13072;DHT22;6602;58.934;11.166;2023-05-29T01:00:53;9.10;99.90
13072;DHT22;6602;58.934;11.166;2023-05-29T01:05:57;9.20;99.90
13072;DHT22;6602;58.934;11.166;2023-05-29T01:11:08;9.20;99.90
13072;DHT22;6602;58.934;11.166;2023-05-29T01:16:25;9.20;99.90
13072;DHT22;6602;58.934;11.166;2023-05-29T01:27:04;9.30;99.90
13072;DHT22;6602;58.934;11.166;2023-05-29T01:32:07;9.20;99.90
13072;DHT22;6602;58.934;11.166;2023-05-29T01:37:09;9.20;99.90
13072;DHT22;6602;58.934;11.166;2023-05-29T01:42:10;9.20;99.90
13072;DHT22;6602;58.934;11.166;2023-05-29T01:47:15;9.20;99.90
13072;DHT22;6602;58.934;11.166;2023-05-29T01:52:17;9.20;99.90
13072;DHT22;6602;58.934;11.166;2023-05-29T01:57:18;9.20;99.90
13072;DHT22;6602;58.934;11.166;2023-05-29T02:02:21;9.20;99.90
13072;DHT22;6602;58.934;11.166;2023-05-29T02:07:23;9.10;99.90
13072;DHT22;6602;58.934;11.166;2023-05-29T02:12:24;9.10;99.90
13072;DHT22;6602;58.934;11.166;2023-05-29T02:17:25;9.00;99.90
13072;DHT22;6602;58.934;11.166;2023-05-29T02:22:28;9.00;99.90
13072;DHT22;6602;58.934;11.166;2023-05-29T02:27:29;8.90;99.90
13072;DHT22;6602;58.934;11.166;2023-05-29T02:32:30;8.80;99.90
13072;DHT22;6602;58.934;11.166;2023-05-29T02:37:31;8.80;99.90
13072;DHT22;6602;58.934;11.166;2023-05-29T02:42:32;8.70;99.90
13072;DHT22;6602;58.934;11.166;2023-05-29T02:47:33;8.60;99.90
13072;DHT22;6602;58.934;11.166;2023-05-29T02:52:34;8.50;99.90
13072;DHT22;6602;58.934;11.166;2023-05-29T02:57:37;8.50;99.90
13072;DHT22;6602;58.934;11.166;2023-05-29T03:02:41;8.50;99.90
13072;DHT22;6602;58.934;11.166;2023-05-29T03:07:43;8.60;99.90
13072;DHT22;6602;58.934;11.166;2023-05-29T03:12:44;8.60;99.90
13072;DHT22;6602;58.934;11.166;2023-05-29T03:17:46;8.60;99.90
13072;DHT22;6602;58.934;11.166;2023-05-29T03:22:47;8.70;99.90
13072;DHT22;6602;58.934;11.166;2023-05-29T03:27:48;8.70;99.90
13072;DHT22;6602;58.934;11.166;2023-05-29T03:32:48;8.80;99.90
13072;DHT22;6602;58.934;11.166;2023-05-29T03:37:52;8.90;99.90
13072;DHT22;6602;58.934;11.166;2023-05-29T03:42:53;9.00;99.90
13072;DHT22;6602;58.934;11.166;2023-05-29T03:47:58;9.10;99.90
13072;DHT22;6602;58.934;11.166;2023-05-29T03:52:58;9.20;99.90
13072;DHT22;6602;58.934;11.166;2023-05-29T03:57:59;9.20;99.90
13072;DHT22;6602;58.934;11.166;2023-05-29T04:03:00;9.20;99.90
13072;DHT22;6602;58.934;11.166;2023-05-29T04:08:01;9.40;99.90
13072;DHT22;6602;58.934;11.166;2023-05-29T04:13:05;9.50;99.90
13072;DHT22;6602;58.934;11.166;2023-05-29T04:18:06;9.70;99.90
13072;DHT22;6602;58.934;11.166;2023-05-29T04:23:08;9.80;99.90
13072;DHT22;6602;58.934;11.166;2023-05-29T04:28:10;10.10;99.90
13072;DHT22;6602;58.934;11.166;2023-05-29T04:33:11;10.10;99.90
13072;DHT22;6602;58.934;11.166;2023-05-29T04:38:14;10.40;99.90
13072;DHT22;6602;58.934;11.166;2023-05-29T04:43:15;10.60;99.90
13072;DHT22;6602;58.934;11.166;2023-05-29T04:48:19;10.60;99.90
13072;DHT22;6602;58.934;11.166;2023-05-29T04:53:20;10.50;99.90
13072;DHT22;6602;58.934;11.166;2023-05-29T04:58:26;10.20;99.90
13072;DHT22;6602;58.934;11.166;2023-05-29T05:03:33;10.00;99.90
13072;DHT22;6602;58.934;11.166;2023-05-29T05:08:35;10.10;99.90
13072;DHT22;6602;58.934;11.166;2023-05-29T05:13:36;10.60;99.90
13072;DHT22;6602;58.934;11.166;2023-05-29T05:18:37;10.90;99.90
13072;DHT22;6602;58.934;11.166;2023-05-29T05:23:38;10.90;99.90
13072;DHT22;6602;58.934;11.166;2023-05-29T05:28:39;10.90;99.90
13072;DHT22;6602;58.934;11.166;2023-05-29T05:33:40;10.80;99.90
13072;DHT22;6602;58.934;11.166;2023-05-29T05:38:41;10.70;99.90
13072;DHT22;6602;58.934;11.166;2023-05-29T05:43:42;10.80;99.90
13072;DHT22;6602;58.934;11.166;2023-05-29T05:48:43;11.20;99.90
13072;DHT22;6602;58.934;11.166;2023-05-29T05:53:43;11.30;99.90
13072;DHT22;6602;58.934;11.166;2023-05-29T05:58:47;11.50;99.90
13072;DHT22;6602;58.934;11.166;2023-05-29T06:03:53;11.50;99.90
13072;DHT22;6602;58.934;11.166;2023-05-29T06:08:57;11.50;99.90
13072;DHT22;6602;58.934;11.166;2023-05-29T06:14:04;11.80;99.90
13072;DHT22;6602;58.934;11.166;2023-05-29T06:19:04;12.20;99.90
13072;DHT22;6602;58.934;11.166;2023-05-29T06:24:08;12.20;99.90
13072;DHT22;6602;58.934;11.166;2023-05-29T06:29:09;12.30;99.90
13072;DHT22;6602;58.934;11.166;2023-05-29T06:34:10;12.50;99.90
13072;DHT22;6602;58.934;11.166;2023-05-29T06:39:11;12.40;99.90
13072;DHT22;6602;58.934;11.166;2023-05-29T06:44:12;12.40;99.90
13072;DHT22;6602;58.934;11.166;2023-05-29T06:49:13;12.90;99.90
13072;DHT22;6602;58.934;11.166;2023-05-29T06:54:17;12.90;99.90
13072;DHT22;6602;58.934;11.166;2023-05-29T06:59:20;13.10;99.90
13072;DHT22;6602;58.934;11.166;2023-05-29T07:04:24;13.00;99.90
13072;DHT22;6602;58.934;11.166;2023-05-29T07:09:28;12.90;99.90
13072;DHT22;6602;58.934;11.166;2023-05-29T07:14:32;13.30;99.90
13072;DHT22;6602;58.934;11.166;2023-05-29T07:19:34;13.70;99.90
13072;DHT22;6602;58.934;11.166;2023-05-29T07:24:38;14.20;99.90
13072;DHT22;6602;58.934;11.166;2023-05-29T07:29:39;14.90;99.90
13072;DHT22;6602;58.934;11.166;2023-05-29T07:34:43;15.20;99.90
13072;DHT22;6602;58.934;11.166;2023-05-29T07:39:45;14.80;99.90
13072;DHT22;6602;58.934;11.166;2023-05-29T07:44:46;15.20;99.90
13072;DHT22;6602;58.934;11.166;2023-05-29T07:49:49;16.70;99.90
13072;DHT22;6602;58.934;11.166;2023-05-29T07:54:50;16.50;99.90
13072;DHT22;6602;58.934;11.166;2023-05-29T07:59:51;16.70;99.90
13072;DHT22;6602;58.934;11.166;2023-05-29T08:04:53;16.60;99.90
13072;DHT22;6602;58.934;11.166;2023-05-29T08:09:54;16.60;99.90
13072;DHT22;6602;58.934;11.166;2023-05-29T08:14:58;16.60;99.90
13072;DHT22;6602;58.934;11.166;2023-05-29T08:20:00;16.80;99.90
13072;DHT22;6602;58.934;11.166;2023-05-29T08:25:06;16.60;99.90
13072;DHT22;6602;58.934;11.166;2023-05-29T08:30:07;16.30;99.90
13072;DHT22;6602;58.934;11.166;2023-05-29T08:35:17;16.20;99.90
13072;DHT22;6602;58.934;11.166;2023-05-29T08:40:21;16.40;99.90
13072;DHT22;6602;58.934;11.166;2023-05-29T08:45:37;16.30;99.90
13072;DHT22;6602;58.934;11.166;2023-05-29T08:50:44;16.60;99.90
13072;DHT22;6602;58.934;11.166;2023-05-29T08:55:48;16.70;99.90
13072;DHT22;6602;58.934;11.166;2023-05-29T09:00:52;16.60;99.90
13072;DHT22;6602;58.934;11.166;2023-05-29T09:05:58;16.80;99.90
13072;DHT22;6602;58.934;11.166;2023-05-29T09:11:05;17.10;99.90
13072;DHT22;6602;58.934;11.166;2023-05-29T09:16:07;17.10;99.90
13072;DHT22;6602;58.934;11.166;2023-05-29T09:21:09;17.40;99.90
13072;DHT22;6602;58.934;11.166;2023-05-29T09:26:14;17.10;99.90
13072;DHT22;6602;58.934;11.166;2023-05-29T09:31:16;17.10;99.90
13072;DHT22;6602;58.934;11.166;2023-05-29T09:36:23;17.20;99.90
13072;DHT22;6602;58.934;11.166;2023-05-29T09:41:25;17.60;99.90
13072;DHT22;6602;58.934;11.166;2023-05-29T09:46:26;17.70;99.90
13072;DHT22;6602;58.934;11.166;2023-05-29T09:51:30;17.70;99.90
13072;DHT22;6602;58.934;11.166;2023-05-29T09:56:32;17.80;99.90
13072;DHT22;6602;58.934;11.166;2023-05-29T10:01:34;17.50;99.90
13072;DHT22;6602;58.934;11.166;2023-05-29T10:06:45;17.10;99.90
13072;DHT22;6602;58.934;11.166;2023-05-29T10:11:48;17.10;99.90
13072;DHT22;6602;58.934;11.166;2023-05-29T10:16:54;17.20;99.90
13072;DHT22;6602;58.934;11.166;2023-05-29T10:21:57;17.40;99.90
13072;DHT22;6602;58.934;11.166;2023-05-29T10:27:07;17.30;99.90
13072;DHT22;6602;58.934;11.166;2023-05-29T10:32:27;17.50;99.90
13072;DHT22;6602;58.934;11.166;2023-05-29T10:37:42;18.00;99.90
13072;DHT22;6602;58.934;11.166;2023-05-29T10:42:50;18.10;99.90
13072;DHT22;6602;58.934;11.166;2023-05-29T10:53:24;17.70;99.90
13072;DHT22;6602;58.934;11.166;2023-05-29T10:58:27;17.50;99.90
13072;DHT22;6602;58.934;11.166;2023-05-29T11:03:32;17.30;99.90
13072;DHT22;6602;58.934;11.166;2023-05-29T11:08:44;17.60;99.90
13072;DHT22;6602;58.934;11.166;2023-05-29T11:14:00;17.70;99.90
13072;DHT22;6602;58.934;11.166;2023-05-29T11:19:07;17.70;99.90
13072;DHT22;6602;58.934;11.166;2023-05-29T11:29:27;17.10;99.90
13072;DHT22;6602;58.934;11.166;2023-05-29T11:34:31;16.80;99.90
13072;DHT22;6602;58.934;11.166;2023-05-29T11:39:37;16.60;99.90
13072;DHT22;6602;58.934;11.166;2023-05-29T11:44:38;16.70;99.90
13072;DHT22;6602;58.934;11.166;2023-05-29T11:49:39;16.80;99.90
13072;DHT22;6602;58.934;11.166;2023-05-29T11:54:41;16.90;99.90
13072;DHT22;6602;58.934;11.166;2023-05-29T11:59:49;17.10;99.90
13072;DHT22;6602;58.934;11.166;2023-05-29T12:05:05;16.90;99.90
13072;DHT22;6602;58.934;11.166;2023-05-29T12:10:12;17.10;99.90
13072;DHT22;6602;58.934;11.166;2023-05-29T12:15:15;17.20;99.90
13072;DHT22;6602;58.934;11.166;2023-05-29T12:20:18;17.40;99.90
13072;DHT22;6602;58.934;11.166;2023-05-29T12:25:23;17.30;99.90
13072;DHT22;6602;58.934;11.166;2023-05-29T12:30:24;16.90;99.90
13072;DHT22;6602;58.934;11.166;2023-05-29T12:35:27;16.30;99.90
13072;DHT22;6602;58.934;11.166;2023-05-29T12:40:32;15.90;99.90
13072;DHT22;6602;58.934;11.166;2023-05-29T12:45:37;15.90;99.90
13072;DHT22;6602;58.934;11.166;2023-05-29T12:50:38;16.20;99.90
13072;DHT22;6602;58.934;11.166;2023-05-29T12:55:43;16.50;99.90
13072;DHT22;6602;58.934;11.166;2023-05-29T13:00:44;16.70;99.90
13072;DHT22;6602;58.934;11.166;2023-05-29T13:05:46;16.80;99.90
13072;DHT22;6602;58.934;11.166;2023-05-29T13:10:47;16.20;99.90
13072;DHT22;6602;58.934;11.166;2023-05-29T13:15:48;16.00;99.90
13072;DHT22;6602;58.934;11.166;2023-05-29T13:20:49;15.80;99.90
13072;DHT22;6602;58.934;11.166;2023-05-29T13:25:49;15.60;99.90
13072;DHT22;6602;58.934;11.166;2023-05-29T13:30:50;15.40;99.90
13072;DHT22;6602;58.934;11.166;2023-05-29T13:35:52;15.20;99.90
13072;DHT22;6602;58.934;11.166;2023-05-29T13:40:53;15.10;99.90
13072;DHT22;6602;58.934;11.166;2023-05-29T13:45:54;15.10;99.90
13072;DHT22;6602;58.934;11.166;2023-05-29T13:50:55;15.20;99.90
13072;DHT22;6602;58.934;11.166;2023-05-29T13:55:55;15.00;99.90
13072;DHT22;6602;58.934;11.166;2023-05-29T14:00:56;14.90;99.90
13072;DHT22;6602;58.934;11.166;2023-05-29T14:06:00;14.70;99.90
13072;DHT22;6602;58.934;11.166;2023-05-29T14:11:02;14.80;99.90
13072;DHT22;6602;58.934;11.166;2023-05-29T14:16:04;15.10;99.90
13072;DHT22;6602;58.934;11.166;2023-05-29T14:21:05;15.00;99.90
13072;DHT22;6602;58.934;11.166;2023-05-29T14:26:06;14.80;99.90
13072;DHT22;6602;58.934;11.166;2023-05-29T14:31:07;14.80;99.90
13072;DHT22;6602;58.934;11.166;2023-05-29T14:36:08;14.70;99.90
13072;DHT22;6602;58.934;11.166;2023-05-29T14:41:10;14.60;99.90
13072;DHT22;6602;58.934;11.166;2023-05-29T14:46:11;14.60;99.90
13072;DHT22;6602;58.934;11.166;2023-05-29T14:51:12;14.50;99.90
13072;DHT22;6602;58.934;11.166;2023-05-29T14:56:13;14.50;99.90
13072;DHT22;6602;58.934;11.166;2023-05-29T15:01:15;14.30;99.90
13072;DHT22;6602;58.934;11.166;2023-05-29T15:06:16;14.20;99.90
13072;DHT22;6602;58.934;11.166;2023-05-29T15:11:17;14.10;99.90
13072;DHT22;6602;58.934;11.166;2023-05-29T15:16:19;14.00;99.90
13072;DHT22;6602;58.934;11.166;2023-05-29T15:21:20;13.80;99.90
13072;DHT22;6602;58.934;11.166;2023-05-29T15:26:21;13.80;99.90
13072;DHT22;6602;58.934;11.166;2023-05-29T15:31:22;13.70;99.90
13072;DHT22;6602;58.934;11.166;2023-05-29T15:36:25;13.70;99.90
13072;DHT22;6602;58.934;11.166;2023-05-29T15:41:26;13.70;99.90
13072;DHT22;6602;58.934;11.166;2023-05-29T15:46:29;13.60;99.90
13072;DHT22;6602;58.934;11.166;2023-05-29T15:51:30;13.50;99.90
13072;DHT22;6602;58.934;11.166;2023-05-29T15:56:34;13.50;99.90
13072;DHT22;6602;58.934;11.166;2023-05-29T16:01:35;13.60;99.90
13072;DHT22;6602;58.934;11.166;2023-05-29T16:06:36;13.60;99.90
13072;DHT22;6602;58.934;11.166;2023-05-29T16:11:37;13.50;99.90
13072;DHT22;6602;58.934;11.166;2023-05-29T16:16:38;13.50;99.90
13072;DHT22;6602;58.934;11.166;2023-05-29T16:21:39;13.50;99.90
13072;DHT22;6602;58.934;11.166;2023-05-29T16:26:41;13.60;99.90
13072;DHT22;6602;58.934;11.166;2023-05-29T16:31:42;13.60;99.90
13072;DHT22;6602;58.934;11.166;2023-05-29T16:36:46;13.50;99.90
13072;DHT22;6602;58.934;11.166;2023-05-29T16:41:50;13.60;99.90
13072;DHT22;6602;58.934;11.166;2023-05-29T16:46:52;13.70;99.90
13072;DHT22;6602;58.934;11.166;2023-05-29T16:51:53;13.80;99.90
13072;DHT22;6602;58.934;11.166;2023-05-29T16:56:54;13.90;99.90
13072;DHT22;6602;58.934;11.166;2023-05-29T17:01:55;13.90;99.90
13072;DHT22;6602;58.934;11.166;2023-05-29T17:06:56;13.90;99.90
13072;DHT22;6602;58.934;11.166;2023-05-29T17:11:57;14.10;99.90
13072;DHT22;6602;58.934;11.166;2023-05-29T17:16:57;14.20;99.90
13072;DHT22;6602;58.934;11.166;2023-05-29T17:21:58;14.30;99.90
13072;DHT22;6602;58.934;11.166;2023-05-29T17:27:00;14.40;99.90
13072;DHT22;6602;58.934;11.166;2023-05-29T17:32:01;14.40;99.90
13072;DHT22;6602;58.934;11.166;2023-05-29T17:37:02;14.40;99.90
13072;DHT22;6602;58.934;11.166;2023-05-29T17:42:04;14.50;99.90
13072;DHT22;6602;58.934;11.166;2023-05-29T17:47:05;14.60;99.90
13072;DHT22;6602;58.934;11.166;2023-05-29T17:52:07;14.60;99.90
13072;DHT22;6602;58.934;11.166;2023-05-29T17:57:08;14.60;99.90
13072;DHT22;6602;58.934;11.166;2023-05-29T18:02:14;14.50;99.90
13072;DHT22;6602;58.934;11.166;2023-05-29T18:07:15;14.60;99.90
13072;DHT22;6602;58.934;11.166;2023-05-29T18:12:17;14.70;99.90
13072;DHT22;6602;58.934;11.166;2023-05-29T18:17:19;14.70;99.90
13072;DHT22;6602;58.934;11.166;2023-05-29T18:22:20;14.60;99.90
13072;DHT22;6602;58.934;11.166;2023-05-29T18:27:21;14.40;99.90
13072;DHT22;6602;58.934;11.166;2023-05-29T18:32:22;14.40;99.90
13072;DHT22;6602;58.934;11.166;2023-05-29T18:37:23;14.40;99.90
13072;DHT22;6602;58.934;11.166;2023-05-29T18:42:25;14.30;99.90
13072;DHT22;6602;58.934;11.166;2023-05-29T18:47:26;14.30;99.90
13072;DHT22;6602;58.934;11.166;2023-05-29T18:52:26;14.20;99.90
13072;DHT22;6602;58.934;11.166;2023-05-29T18:57:27;14.20;99.90
13072;DHT22;6602;58.934;11.166;2023-05-29T19:02:29;14.00;99.90
13072;DHT22;6602;58.934;11.166;2023-05-29T19:07:30;13.90;99.90
13072;DHT22;6602;58.934;11.166;2023-05-29T19:12:31;13.80;99.90
13072;DHT22;6602;58.934;11.166;2023-05-29T19:17:32;13.80;99.90
13072;DHT22;6602;58.934;11.166;2023-05-29T19:22:35;13.60;99.90
13072;DHT22;6602;58.934;11.166;2023-05-29T19:27:36;13.60;99.90
13072;DHT22;6602;58.934;11.166;2023-05-29T19:32:37;13.50;99.90
13072;DHT22;6602;58.934;11.166;2023-05-29T19:37:39;13.40;99.90
13072;DHT22;6602;58.934;11.166;2023-05-29T19:42:40;13.30;99.90
13072;DHT22;6602;58.934;11.166;2023-05-29T19:47:41;13.20;99.90
13072;DHT22;6602;58.934;11.166;2023-05-29T19:52:42;13.10;99.90
13072;DHT22;6602;58.934;11.166;2023-05-29T19:57:43;13.00;99.90
13072;DHT22;6602;58.934;11.166;2023-05-29T20:02:47;12.80;99.90
13072;DHT22;6602;58.934;11.166;2023-05-29T20:07:50;12.80;99.90
13072;DHT22;6602;58.934;11.166;2023-05-29T20:12:51;12.70;99.90
13072;DHT22;6602;58.934;11.166;2023-05-29T20:17:52;12.60;99.90
13072;DHT22;6602;58.934;11.166;2023-05-29T20:22:55;12.50;99.90
13072;DHT22;6602;58.934;11.166;2023-05-29T20:27:56;12.40;99.90
13072;DHT22;6602;58.934;11.166;2023-05-29T20:32:57;12.30;99.90
13072;DHT22;6602;58.934;11.166;2023-05-29T20:37:58;12.20;99.90
13072;DHT22;6602;58.934;11.166;2023-05-29T20:43:02;12.00;99.90
13072;DHT22;6602;58.934;11.166;2023-05-29T20:48:06;11.80;99.90
13072;DHT22;6602;58.934;11.166;2023-05-29T20:53:07;11.60;99.90
13072;DHT22;6602;58.934;11.166;2023-05-29T20:58:08;11.50;99.90
13072;DHT22;6602;58.934;11.166;2023-05-29T21:03:09;11.40;99.90
13072;DHT22;6602;58.934;11.166;2023-05-29T21:08:10;11.40;99.90
13072;DHT22;6602;58.934;11.166;2023-05-29T21:13:14;11.20;99.90
13072;DHT22;6602;58.934;11.166;2023-05-29T21:18:15;11.10;99.90
13072;DHT22;6602;58.934;11.166;2023-05-29T21:23:16;11.00;99.90
13072;DHT22;6602;58.934;11.166;2023-05-29T21:28:17;11.00;99.90
13072;DHT22;6602;58.934;11.166;2023-05-29T21:33:18;10.90;99.90
13072;DHT22;6602;58.934;11.166;2023-05-29T21:38:19;10.80;99.90
13072;DHT22;6602;58.934;11.166;2023-05-29T21:43:20;10.80;99.90
13072;DHT22;6602;58.934;11.166;2023-05-29T21:48:21;10.70;99.90
13072;DHT22;6602;58.934;11.166;2023-05-29T21:53:27;10.60;99.90
13072;DHT22;6602;58.934;11.166;2023-05-29T21:58:28;10.50;99.90
13072;DHT22;6602;58.934;11.166;2023-05-29T22:03:29;10.40;99.90
13072;DHT22;6602;58.934;11.166;2023-05-29T22:08:43;10.30;99.90
13072;DHT22;6602;58.934;11.166;2023-05-29T22:13:44;10.10;99.90
13072;DHT22;6602;58.934;11.166;2023-05-29T22:18:46;10.00;99.90
13072;DHT22;6602;58.934;11.166;2023-05-29T22:23:48;9.80;99.90
13072;DHT22;6602;58.934;11.166;2023-05-29T22:28:50;9.70;99.90
13072;DHT22;6602;58.934;11.166;2023-05-29T22:33:52;9.70;99.90
13072;DHT22;6602;58.934;11.166;2023-05-29T22:38:53;9.70;99.90
13072;DHT22;6602;58.934;11.166;2023-05-29T22:43:54;9.60;99.90
13072;DHT22;6602;58.934;11.166;2023-05-29T22:48:55;9.50;99.90
13072;DHT22;6602;58.934;11.166;2023-05-29T22:53:59;9.50;99.90
13072;DHT22;6602;58.934;11.166;2023-05-29T22:59:04;9.40;99.90
13072;DHT22;6602;58.934;11.166;2023-05-29T23:04:05;9.30;99.90
13072;DHT22;6602;58.934;11.166;2023-05-29T23:09:07;9.30;99.90
13072;DHT22;6602;58.934;11.166;2023-05-29T23:14:08;9.20;99.90
13072;DHT22;6602;58.934;11.166;2023-05-29T23:19:09;9.10;99.90
13072;DHT22;6602;58.934;11.166;2023-05-29T23:24:10;9.10;99.90
13072;DHT22;6602;58.934;11.166;2023-05-29T23:29:12;9.10;99.90
13072;DHT22;6602;58.934;11.166;2023-05-29T23:34:13;9.00;99.90
13072;DHT22;6602;58.934;11.166;2023-05-29T23:39:16;8.90;99.90
13072;DHT22;6602;58.934;11.166;2023-05-29T23:44:17;8.90;99.90
13072;DHT22;6602;58.934;11.166;2023-05-29T23:49:18;8.80;99.90
13072;DHT22;6602;58.934;11.166;2023-05-29T23:54:19;8.60;99.90
13072;DHT22;6602;58.934;11.166;2023-05-29T23:59:20;8.50;99.90
